Time;durP1;ratioP1;P1;durP2;ratioP2;P2;SDS_P1;SDS_P2;PMS_P1;PMS_P2;Temp;Humidity;BMP_temperature;BMP_pressure;BME280_temperature;BME280_humidity;BME280_pressure;Samples;Min_cycle;Max_cycle;Signal;HPM_P1;HPM_P2
2022/11/20 00:00:07;;;;;;;10.23;6.95;;;;;;;-0.25;100.00;152486.63;4922072;29;20040;-76
2022/11/20 00:02:33;;;;;;;9.27;6.57;;;;;;;-0.29;100.00;152476.47;4945835;29;20031;-78
2022/11/20 00:04:59;;;;;;;10.50;7.10;;;;;;;-0.37;100.00;152456.09;4921243;29;20091;-77
2022/11/20 00:07:24;;;;;;;11.07;7.35;;;;;;;-0.39;100.00;152451.00;4921126;29;20052;-74
2022/11/20 00:09:50;;;;;;;10.88;7.45;;;;;;;-0.40;100.00;152449.75;4927963;28;20818;-77
2022/11/20 00:12:15;;;;;;;12.25;7.78;;;;;;;-0.41;100.00;152447.19;4924212;29;20133;-77
2022/11/20 00:14:41;;;;;;;10.80;6.97;;;;;;;-0.44;100.00;152439.53;4941682;29;20032;-75
2022/11/20 00:17:07;;;;;;;12.32;7.68;;;;;;;-0.44;100.00;152439.53;4913395;29;20048;-75
2022/11/20 00:19:32;;;;;;;12.80;7.35;;;;;;;-0.41;100.00;152447.19;4910719;29;20502;-75
2022/11/20 00:21:58;;;;;;;10.45;7.50;;;;;;;-0.50;100.00;152424.25;4941524;28;20035;-75
2022/11/20 00:24:23;;;;;;;10.57;7.72;;;;;;;-0.47;100.00;152431.91;4932836;29;20043;-74
2022/11/20 00:26:49;;;;;;;10.70;7.30;;;;;;;-0.53;100.00;152416.59;4922513;29;20043;-75
2022/11/20 00:29:15;;;;;;;9.50;7.28;;;;;;;-0.48;100.00;152428.09;4938852;28;20115;-75
2022/11/20 00:31:40;;;;;;;11.15;6.75;;;;;;;-0.51;100.00;152421.75;4941347;29;20058;-75
2022/11/20 00:34:06;;;;;;;10.70;7.05;;;;;;;-0.51;100.00;152421.75;4915104;29;20039;-76
2022/11/20 00:36:33;;;;;;;9.60;6.40;;;;;;;-0.51;100.00;152421.75;4906016;28;20427;-74
2022/11/20 00:38:59;;;;;;;9.90;7.18;;;;;;;-0.56;100.00;152409.00;4951539;28;20150;-77
2022/11/20 00:41:27;;;;;;;9.75;7.20;;;;;;;-0.57;100.00;152406.44;4925637;29;20062;-76
2022/11/20 00:43:54;;;;;;;10.32;7.20;;;;;;;-0.58;100.00;152403.91;4932787;29;20259;-75
2022/11/20 00:46:22;;;;;;;11.48;7.47;;;;;;;-0.49;100.00;152426.84;4933798;29;20061;-74
2022/11/20 00:48:47;;;;;;;11.07;7.00;;;;;;;-0.23;100.00;152490.47;4913793;29;20046;-76
2022/11/20 00:51:16;;;;;;;11.18;7.53;;;;;;;-0.29;100.00;152475.19;4958111;28;20194;-75
2022/11/20 00:53:42;;;;;;;9.88;7.53;;;;;;;-0.40;100.00;152449.75;4952718;28;20098;-75
2022/11/20 00:56:12;;;;;;;10.77;7.20;;;;;;;-0.48;100.00;152428.09;4945187;29;20494;-74
2022/11/20 00:58:40;;;;;;;10.93;6.85;;;;;;;-0.52;100.00;152419.19;4916578;29;20039;-78
2022/11/20 01:01:11;;;;;;;10.18;7.53;;;;;;;-0.57;100.00;152406.44;4920166;29;20424;-74
2022/11/20 01:03:42;;;;;;;10.70;7.32;;;;;;;-0.60;100.00;152400.09;4924929;29;20031;-74
2022/11/20 01:06:13;;;;;;;11.23;7.30;;;;;;;-0.58;100.00;152403.91;4946007;28;20110;-74
2022/11/20 01:08:39;;;;;;;14.57;7.93;;;;;;;-0.53;100.00;152415.34;4919781;29;20095;-77
2022/11/20 01:11:08;;;;;;;11.48;7.00;;;;;;;-0.42;100.00;152444.63;4913666;29;20108;-75
2022/11/20 01:13:38;;;;;;;9.25;6.85;;;;;;;-0.28;100.00;152477.75;4943878;28;20035;-78
2022/11/20 01:16:12;;;;;;;9.13;6.45;;;;;;;-0.04;100.00;152537.56;4915902;29;20500;-75
2022/11/20 01:18:40;;;;;;;10.80;6.38;;;;;;;-0.11;100.00;152521.03;4925601;28;20035;-75
2022/11/20 01:21:09;;;;;;;9.77;5.70;;;;;;;-0.12;100.00;152518.47;4900161;29;20039;-74
2022/11/20 01:23:38;;;;;;;9.70;5.97;;;;;;;-0.23;100.00;152490.47;4919799;29;20505;-75
2022/11/20 01:26:07;;;;;;;11.48;6.50;;;;;;;-0.29;100.00;152475.19;4928892;29;20035;-75
2022/11/20 01:28:33;;;;;;;9.05;6.30;;;;;;;-0.31;100.00;152470.09;4904877;29;20039;-75
2022/11/20 01:30:59;;;;;;;9.85;6.30;;;;;;;-0.26;100.00;152484.13;4942781;28;20032;-74
2022/11/20 01:33:25;;;;;;;11.88;6.22;;;;;;;-0.29;100.00;152476.47;4940206;29;20090;-74
2022/11/20 01:35:51;;;;;;;10.38;6.85;;;;;;;-0.36;100.00;152458.63;4927089;28;20058;-75
2022/11/20 01:38:18;;;;;;;9.60;6.60;;;;;;;-0.30;100.00;152473.94;4902761;29;20035;-74
2022/11/20 01:40:43;;;;;;;9.23;6.28;;;;;;;-0.08;100.00;152527.41;4957456;28;20566;-75
2022/11/20 01:43:23;;;;;;;9.73;5.88;;;;;;;-0.09;100.00;152526.13;4928638;29;20043;-74
2022/11/20 01:45:52;;;;;;;6.70;5.80;;;;;;;-0.04;100.00;152537.56;4920935;29;20032;-74
2022/11/20 01:48:19;;;;;;;9.63;6.10;;;;;;;-0.09;100.00;152526.13;4932771;29;20039;-75
2022/11/20 01:50:45;;;;;;;10.52;6.55;;;;;;;-0.20;100.00;152499.38;4934648;29;20127;-74
2022/11/20 01:53:17;;;;;;;11.32;6.45;;;;;;;-0.27;100.00;152480.28;4915028;29;20038;-75
2022/11/20 01:55:48;;;;;;;8.50;6.22;;;;;;;-0.26;100.00;152484.13;4926372;29;20098;-74
2022/11/20 01:58:16;;;;;;;8.00;6.22;;;;;;;-0.27;100.00;152481.53;4923611;29;20066;-74
2022/11/20 02:00:42;;;;;;;8.93;6.38;;;;;;;-0.32;100.00;152467.53;4950940;28;20503;-75
2022/11/20 02:03:16;;;;;;;10.40;6.78;;;;;;;-0.35;100.00;152459.94;4914508;29;20043;-76
2022/11/20 02:05:59;;;;;;;10.63;6.82;;;;;;;-0.30;100.00;152473.94;4908040;29;20031;-75
2022/11/20 02:08:24;;;;;;;9.30;7.05;;;;;;;-0.22;100.00;152493.03;4940515;28;20102;-75
2022/11/20 02:10:50;;;;;;;11.05;6.95;;;;;;;-0.24;100.00;152487.94;4921404;29;20489;-74
2022/11/20 02:16:01;;;;;;;10.75;6.80;;;;;;;-0.13;100.00;152514.66;4941534;29;20105;-75
2022/11/20 02:18:28;;;;;;;11.10;6.50;;;;;;;-0.11;100.00;152519.78;4936780;28;20122;-75
2022/11/20 02:21:06;;;;;;;13.32;7.00;;;;;;;-0.13;100.00;152514.66;4913314;29;20527;-75
2022/11/20 02:23:50;;;;;;;10.35;6.60;;;;;;;-0.11;100.00;152519.78;4923068;29;20063;-75
2022/11/20 02:26:18;;;;;;;12.85;7.30;;;;;;;-0.03;100.00;152540.16;4929101;29;20753;-74
2022/11/20 02:28:43;;;;;;;11.15;7.07;;;;;;;-0.12;100.00;152518.47;4945211;28;20035;-75
2022/11/20 02:31:09;;;;;;;10.25;7.28;;;;;;;-0.10;100.00;152522.31;4932734;28;20035;-75
2022/11/20 02:33:35;;;;;;;12.20;7.25;;;;;;;-0.18;100.00;152501.94;4927651;29;20055;-75
2022/11/20 02:36:01;;;;;;;12.52;7.78;;;;;;;-0.15;100.00;152509.56;4931641;29;20492;-74
2022/11/20 02:38:26;;;;;;;11.02;7.05;;;;;;;-0.18;100.00;152503.22;4933625;29;20444;-75
2022/11/20 02:40:52;;;;;;;11.27;7.18;;;;;;;-0.22;100.00;152493.03;4915852;29;20058;-75
2022/11/20 02:43:18;;;;;;;11.23;7.30;;;;;;;-0.17;100.00;152505.78;4938885;29;20707;-74
2022/11/20 02:45:46;;;;;;;11.82;8.25;;;;;;;-0.23;100.00;152491.78;4923727;29;20035;-74
2022/11/20 02:48:11;;;;;;;11.85;7.88;;;;;;;-0.19;100.00;152500.66;4929045;29;20126;-75
2022/11/20 02:50:38;;;;;;;10.65;7.95;;;;;;;-0.04;100.00;152537.56;4933762;28;20110;-75
2022/11/20 02:53:04;;;;;;;11.02;7.55;;;;;;;-0.12;100.00;152517.22;4911662;29;20050;-75
2022/11/20 02:55:30;;;;;;;9.40;7.18;;;;;;;-0.14;100.00;152512.13;4927602;29;20513;-75
2022/11/20 02:57:56;;;;;;;9.32;6.90;;;;;;;-0.06;100.00;152533.78;4929166;29;20035;-75
2022/11/20 03:00:21;;;;;;;10.30;7.07;;;;;;;-0.07;100.00;152531.22;4931842;29;20039;-74
2022/11/20 03:02:47;;;;;;;10.13;6.70;;;;;;;-0.09;100.00;152524.88;4896637;29;20039;-75
2022/11/20 03:05:12;;;;;;;11.13;7.13;;;;;;;-0.06;100.00;152532.50;4919835;29;20393;-75
2022/11/20 03:07:38;;;;;;;11.10;6.78;;;;;;;-0.06;100.00;152532.50;4909207;29;20121;-77
2022/11/20 03:10:04;;;;;;;9.43;7.00;;;;;;;-0.16;100.00;152507.03;4931862;29;20043;-74
2022/11/20 03:12:30;;;;;;;8.52;6.53;;;;;;;-0.21;100.00;152495.56;4927784;29;20116;-74
2022/11/20 03:14:55;;;;;;;9.18;7.00;;;;;;;-0.25;100.00;152486.63;4941502;28;20044;-75
2022/11/20 03:17:21;;;;;;;11.02;7.10;;;;;;;-0.26;100.00;152482.84;4939014;29;20457;-75
2022/11/20 03:19:46;;;;;;;10.57;6.75;;;;;;;-0.22;100.00;152493.03;4943727;28;20035;-76
2022/11/20 03:22:12;;;;;;;15.52;7.20;;;;;;;-0.16;100.00;152507.03;4905324;29;20493;-75
2022/11/20 03:24:38;;;;;;;11.88;7.53;;;;;;;-0.22;100.00;152493.03;4915086;29;20043;-75
2022/11/20 03:27:03;;;;;;;9.60;7.20;;;;;;;-0.29;100.00;152476.47;4950990;28;20042;-75
2022/11/20 03:29:29;;;;;;;12.95;7.22;;;;;;;-0.23;100.00;152491.78;4945206;29;20460;-75
2022/11/20 03:31:54;;;;;;;7.85;6.40;;;;;;;-0.24;100.00;152489.19;4934566;29;20039;-75
2022/11/20 03:34:20;;;;;;;10.80;7.05;;;;;;;-0.30;100.00;152473.94;4911969;29;20527;-75
2022/11/20 03:36:45;;;;;;;9.65;6.53;;;;;;;-0.18;100.00;152503.22;4933665;29;20090;-75
2022/11/20 03:39:11;;;;;;;9.02;6.95;;;;;;;-0.19;100.00;152500.66;4931414;29;20082;-75
2022/11/20 03:41:40;;;;;;;10.07;7.15;;;;;;;-0.24;100.00;152487.94;4929672;29;20072;-74
2022/11/20 03:44:08;;;;;;;11.30;7.45;;;;;;;-0.24;100.00;152487.94;4933164;29;20043;-76
2022/11/20 03:46:34;;;;;;;11.02;6.70;;;;;;;-0.15;100.00;152509.56;4906749;29;20042;-74
2022/11/20 03:49:00;;;;;;;11.40;7.18;;;;;;;-0.22;100.00;152494.28;4931474;29;20031;-76
2022/11/20 03:51:32;;;;;;;8.00;6.32;;;;;;;-0.25;100.00;152485.38;4916043;29;20329;-75
2022/11/20 03:53:59;;;;;;;8.00;6.55;;;;;;;-0.30;100.00;152473.94;4928935;29;20094;-75
2022/11/20 03:56:27;;;;;;;9.77;6.90;;;;;;;-0.29;100.00;152475.19;4942652;29;20043;-75
2022/11/20 03:58:53;;;;;;;10.82;6.75;;;;;;;-0.13;100.00;152514.66;4917249;29;20655;-75
2022/11/20 04:01:21;;;;;;;10.05;7.20;;;;;;;-0.26;100.00;152484.13;4923270;29;20031;-75
2022/11/20 04:03:47;;;;;;;10.93;6.95;;;;;;;-0.29;100.00;152476.47;4915554;29;20059;-75
2022/11/20 04:06:20;;;;;;;10.60;7.05;;;;;;;-0.32;100.00;152467.53;4918333;29;20043;-75
2022/11/20 04:08:45;;;;;;;8.30;6.80;;;;;;;-0.31;100.00;152470.09;4908190;29;20509;-74
2022/11/20 04:11:32;;;;;;;8.65;7.15;;;;;;;-0.34;100.00;152462.44;4916115;29;20039;-76
2022/11/20 04:14:00;;;;;;;11.65;7.25;;;;;;;-0.36;100.00;152457.38;4925162;28;20062;-76
2022/11/20 04:16:29;;;;;;;9.60;7.13;;;;;;;-0.29;100.00;152475.19;4915531;29;20079;-74
2022/11/20 04:18:56;;;;;;;13.35;7.63;;;;;;;-0.30;100.00;152472.63;4929815;29;20039;-75
2022/11/20 04:21:23;;;;;;;9.98;7.03;;;;;;;-0.30;100.00;152473.94;4938465;29;20408;-75
2022/11/20 04:23:50;;;;;;;9.88;7.32;;;;;;;-0.34;100.00;152463.75;4914107;29;20129;-75
2022/11/20 04:26:16;;;;;;;10.55;7.15;;;;;;;-0.35;100.00;152461.19;4944506;29;20063;-74
2022/11/20 04:28:42;;;;;;;13.32;7.50;;;;;;;-0.33;100.00;152466.28;4941943;29;20393;-74
2022/11/20 04:31:12;;;;;;;13.95;7.63;;;;;;;-0.31;100.00;152471.38;4947181;28;20046;-75
2022/11/20 04:33:39;;;;;;;9.85;7.13;;;;;;;-0.25;100.00;152485.38;4919740;29;20039;-75
2022/11/20 04:36:10;;;;;;;11.40;7.43;;;;;;;-0.28;100.00;152479.03;4945648;29;20051;-75
2022/11/20 04:38:37;;;;;;;10.50;7.03;;;;;;;-0.31;100.00;152470.09;4937909;29;20039;-75
2022/11/20 04:41:05;;;;;;;8.98;6.90;;;;;;;-0.31;100.00;152471.38;4921163;29;20043;-75
2022/11/20 04:43:32;;;;;;;11.20;8.02;;;;;;;-0.31;100.00;152470.09;4932932;29;20031;-75
2022/11/20 04:45:59;;;;;;;10.85;7.65;;;;;;;-0.22;100.00;152494.28;4916239;29;20196;-75
2022/11/20 04:48:26;;;;;;;14.50;7.22;;;;;;;-0.22;100.00;152493.03;4933797;29;20061;-75
2022/11/20 04:50:52;;;;;;;14.13;7.50;;;;;;;-0.32;100.00;152467.53;4916307;29;20038;-74
2022/11/20 04:53:18;;;;;;;11.90;6.90;;;;;;;-0.37;100.00;152456.09;4921591;29;20035;-75
2022/11/20 04:55:43;;;;;;;11.13;7.18;;;;;;;-0.33;100.00;152466.28;4914520;29;20039;-76
2022/11/20 04:58:09;;;;;;;13.38;7.40;;;;;;;-0.33;100.00;152466.28;4943271;29;20121;-75
2022/11/20 05:00:35;;;;;;;9.98;7.20;;;;;;;-0.33;100.00;152466.28;4946242;28;20047;-75
2022/11/20 05:03:00;;;;;;;10.88;7.43;;;;;;;-0.35;100.00;152461.19;4915844;29;20035;-75
2022/11/20 05:05:26;;;;;;;9.10;6.88;;;;;;;-0.26;100.00;152484.13;4915830;29;20046;-74
2022/11/20 05:07:52;;;;;;;9.85;7.07;;;;;;;-0.32;100.00;152467.53;4945073;29;20034;-76
2022/11/20 05:10:17;;;;;;;11.10;7.70;;;;;;;-0.32;100.00;152468.84;4942153;28;20138;-76
2022/11/20 05:12:43;;;;;;;12.38;7.35;;;;;;;-0.27;100.00;152481.53;4902959;29;20446;-76
2022/11/20 05:15:09;;;;;;;10.70;7.55;;;;;;;-0.31;100.00;152470.09;4935173;29;20065;-77
2022/11/20 05:17:34;;;;;;;13.70;7.60;;;;;;;-0.29;100.00;152476.47;4932850;29;20035;-76
2022/11/20 05:20:00;;;;;;;11.85;7.03;;;;;;;-0.28;100.00;152477.75;4920785;29;20074;-77
2022/11/20 05:22:26;;;;;;;13.40;7.60;;;;;;;-0.26;100.00;152484.13;4931597;29;20393;-78
2022/11/20 05:24:51;;;;;;;10.90;7.75;;;;;;;-0.30;100.00;152473.94;4941934;28;20642;-76
2022/11/20 05:27:17;;;;;;;11.38;7.60;;;;;;;-0.34;100.00;152462.44;4912476;28;20798;-77
2022/11/20 05:29:43;;;;;;;12.05;7.85;;;;;;;-0.41;100.00;152447.19;4943864;29;20031;-76
2022/11/20 05:32:09;;;;;;;10.32;7.68;;;;;;;-0.41;100.00;152447.19;4917550;29;20085;-77
2022/11/20 05:34:35;;;;;;;14.70;7.95;;;;;;;-0.34;100.00;152463.75;4932939;29;20047;-76
2022/11/20 05:37:02;;;;;;;10.30;6.53;;;;;;;-0.21;100.00;152495.56;4933181;29;20400;-76
2022/11/20 05:39:27;;;;;;;10.95;7.53;;;;;;;-0.26;100.00;152484.13;4934125;29;20042;-76
2022/11/20 05:42:29;;;;;;;8.57;6.65;;;;;;;-0.25;100.00;152485.38;4903755;29;20503;-77
2022/11/20 05:44:39;;;;;;;9.90;7.15;;;;;;;-0.36;100.00;152457.38;4928222;29;20113;-77
2022/11/20 05:47:05;;;;;;;11.25;7.97;;;;;;;-0.37;100.00;152454.84;4956647;28;20575;-76
2022/11/20 05:49:31;;;;;;;12.60;8.57;;;;;;;-0.34;100.00;152462.44;4914208;29;20095;-76
2022/11/20 05:51:57;;;;;;;11.48;7.47;;;;;;;-0.41;100.00;152447.19;4932733;29;20039;-76
2022/11/20 05:54:23;;;;;;;12.30;8.48;;;;;;;-0.49;100.00;152426.84;4929623;29;20097;-76
2022/11/20 05:56:49;;;;;;;13.52;9.05;;;;;;;-0.47;100.00;152430.63;4920483;29;20079;-76
2022/11/20 05:59:15;;;;;;;12.43;8.15;;;;;;;-0.52;100.00;152419.19;4923815;29;20039;-76
2022/11/20 06:01:40;;;;;;;12.93;9.38;;;;;;;-0.57;100.00;152405.16;4918940;29;20028;-74
2022/11/20 06:04:06;;;;;;;12.57;8.15;;;;;;;-0.45;100.00;152435.75;4922591;29;20110;-76
2022/11/20 06:06:31;;;;;;;11.65;7.95;;;;;;;-0.46;100.00;152433.19;4926819;28;20516;-75
2022/11/20 06:08:58;;;;;;;11.27;7.60;;;;;;;-0.41;100.00;152445.94;4931112;29;20035;-74
2022/11/20 06:11:24;;;;;;;9.90;7.35;;;;;;;-0.41;100.00;152445.94;4939696;29;20777;-75
2022/11/20 06:13:50;;;;;;;9.38;6.78;;;;;;;-0.49;100.00;152425.53;4908770;29;20036;-74
2022/11/20 06:16:19;;;;;;;9.98;7.53;;;;;;;-0.38;100.00;152452.28;4935831;29;20090;-74
2022/11/20 06:18:45;;;;;;;9.18;6.93;;;;;;;-0.47;100.00;152431.91;4930761;29;20031;-74
2022/11/20 06:21:20;;;;;;;10.75;6.45;;;;;;;-0.43;100.00;152440.84;4933633;29;20035;-74
2022/11/20 06:23:46;;;;;;;12.90;7.90;;;;;;;-0.39;100.00;152451.00;4938002;28;20640;-75
2022/11/20 06:26:32;;;;;;;10.35;7.13;;;;;;;-0.47;100.00;152431.91;4921271;29;20055;-74
2022/11/20 06:28:57;;;;;;;12.25;7.57;;;;;;;-0.50;100.00;152424.25;4935620;28;20043;-75
2022/11/20 06:31:26;;;;;;;10.05;6.10;;;;;;;-0.34;100.00;152462.44;4927496;29;20039;-74
2022/11/20 06:33:52;;;;;;;10.68;6.30;;;;;;;-0.49;100.00;152425.53;4908920;29;20040;-74
2022/11/20 06:36:21;;;;;;;8.95;6.82;;;;;;;-0.61;100.00;152396.25;4930650;29;20066;-74
2022/11/20 06:38:46;;;;;;;10.57;7.30;;;;;;;-0.71;100.00;152370.81;4929538;29;20046;-74
2022/11/20 06:41:15;;;;;;;13.25;7.72;;;;;;;-0.75;100.00;152361.91;4934240;29;20039;-74
2022/11/20 06:43:41;;;;;;;11.25;8.13;;;;;;;-0.83;100.00;152342.81;4932859;29;20039;-74
2022/11/20 06:46:09;;;;;;;11.25;7.78;;;;;;;-0.81;100.00;152346.59;4908430;29;20151;-75
2022/11/20 06:48:40;;;;;;;11.43;7.82;;;;;;;-0.87;100.00;152332.59;5062869;28;20368;-76
2022/11/20 06:51:07;;;;;;;9.45;7.38;;;;;;;-0.84;100.00;152339.00;5015611;28;20044;-76
2022/11/20 06:53:34;;;;;;;10.18;6.82;;;;;;;-0.74;100.00;152364.44;5019462;28;20103;-75
2022/11/20 06:55:59;;;;;;;10.75;6.78;;;;;;;-0.82;100.00;152344.06;5044313;28;20095;-76
2022/11/20 06:58:30;;;;;;;12.52;7.00;;;;;;;-0.81;100.00;152347.91;5013498;28;20034;-75
2022/11/20 07:01:05;;;;;;;9.50;7.15;;;;;;;-0.84;100.00;152340.25;5046697;28;20036;-75
2022/11/20 07:03:31;;;;;;;14.55;7.60;;;;;;;-0.90;100.00;152325.00;5017960;28;20835;-75
2022/11/20 07:05:58;;;;;;;12.98;7.18;;;;;;;-0.86;100.00;152333.91;5009233;28;20212;-76
2022/11/20 07:08:24;;;;;;;11.52;7.05;;;;;;;-0.82;100.00;152344.06;5018769;28;20037;-75
2022/11/20 07:10:50;;;;;;;10.73;7.00;;;;;;;-0.87;100.00;152331.34;5042420;28;20091;-76
2022/11/20 07:13:15;;;;;;;11.70;7.47;;;;;;;-0.88;100.00;152330.06;5024274;28;20068;-75
2022/11/20 07:15:41;;;;;;;11.23;7.88;;;;;;;-0.86;100.00;152335.16;5010174;28;20040;-75
2022/11/20 07:18:06;;;;;;;8.55;7.15;;;;;;;-0.73;100.00;152367.00;5028599;28;20044;-75
2022/11/20 07:20:32;;;;;;;12.43;7.63;;;;;;;-0.62;100.00;152395.00;5025769;28;20056;-75
2022/11/20 07:22:58;;;;;;;8.05;6.95;;;;;;;-0.63;100.00;152391.16;5008879;28;20143;-75
2022/11/20 07:25:25;;;;;;;11.68;7.50;;;;;;;-0.66;100.00;152384.81;5024733;28;20033;-75
2022/11/20 07:27:51;;;;;;;11.40;7.75;;;;;;;-0.63;100.00;152391.16;5025395;28;20037;-75
2022/11/20 07:30:17;;;;;;;13.80;7.75;;;;;;;-0.64;100.00;152388.59;5023871;28;20041;-76
2022/11/20 07:32:46;;;;;;;14.30;7.90;;;;;;;-0.63;100.00;152392.44;5046080;28;20047;-76
2022/11/20 07:35:12;;;;;;;14.05;8.07;;;;;;;-0.51;100.00;152421.75;5043151;28;20029;-75
2022/11/20 07:37:38;;;;;;;12.38;7.55;;;;;;;-0.51;100.00;152421.75;5026671;28;20037;-75
2022/11/20 07:40:04;;;;;;;15.95;7.95;;;;;;;-0.54;100.00;152412.81;5025122;28;20445;-75
2022/11/20 07:42:29;;;;;;;11.85;7.43;;;;;;;-0.51;100.00;152421.75;5042020;28;20086;-75
2022/11/20 07:44:55;;;;;;;10.05;7.13;;;;;;;-0.60;100.00;152400.09;5025901;28;20037;-75
2022/11/20 07:47:20;;;;;;;10.15;7.47;;;;;;;-0.47;100.00;152431.91;5007799;28;20041;-75
2022/11/20 07:49:46;;;;;;;10.48;7.50;;;;;;;-0.49;100.00;152426.84;5025324;28;20067;-75
2022/11/20 07:52:12;;;;;;;13.27;7.90;;;;;;;-0.43;100.00;152440.84;5020958;28;20041;-75
2022/11/20 07:54:37;;;;;;;11.07;8.07;;;;;;;-0.46;100.00;152434.44;5039133;28;20037;-74
2022/11/20 07:57:03;;;;;;;9.23;7.22;;;;;;;-0.42;100.00;152444.63;5039137;28;20433;-75
2022/11/20 07:59:28;;;;;;;10.95;7.82;;;;;;;-0.35;100.00;152461.19;5031146;28;20175;-75
2022/11/20 08:01:54;;;;;;;12.88;7.63;;;;;;;-0.25;100.00;152486.63;5028213;28;20470;-75
2022/11/20 08:04:20;;;;;;;10.73;7.75;;;;;;;-0.27;100.00;152481.53;5010403;28;20033;-75
2022/11/20 08:06:46;;;;;;;11.52;8.00;;;;;;;-0.23;100.00;152490.47;5012471;28;20033;-74
2022/11/20 08:09:11;;;;;;;11.65;8.43;;;;;;;-0.15;100.00;152509.56;5011241;28;20091;-75
2022/11/20 08:14:21;;;;;;;13.07;8.50;;;;;;;-0.02;100.00;152543.97;5011058;28;20042;-75
2022/11/20 08:16:48;;;;;;;10.70;8.57;;;;;;;0.13;100.00;152580.91;5029121;28;20083;-75
2022/11/20 08:19:16;;;;;;;13.80;9.32;;;;;;;0.20;100.00;152597.44;5015875;28;20121;-75
2022/11/20 08:21:42;;;;;;;11.57;8.50;;;;;;;0.19;100.00;152596.19;5012713;28;20068;-75
2022/11/20 08:24:08;;;;;;;16.88;10.07;;;;;;;0.28;100.00;152616.56;4992624;28;20030;-74
2022/11/20 08:26:36;;;;;;;14.48;10.90;;;;;;;0.28;100.00;152617.81;5029705;28;20119;-75
2022/11/20 08:29:03;;;;;;;16.08;11.23;;;;;;;0.29;100.00;152620.38;5029904;28;20056;-76
2022/11/20 08:31:29;;;;;;;17.60;12.45;;;;;;;0.31;100.00;152624.22;5028133;28;20041;-75
2022/11/20 08:33:55;;;;;;;16.90;12.93;;;;;;;0.35;100.00;152634.41;5028703;28;20453;-75
2022/11/20 08:36:22;;;;;;;17.52;12.50;;;;;;;0.46;100.00;152661.16;4993291;28;20976;-75
2022/11/20 08:38:54;;;;;;;16.27;12.70;;;;;;;0.42;100.00;152650.97;5028990;28;20037;-75
2022/11/20 08:41:30;;;;;;;21.27;13.23;;;;;;;0.41;100.00;152648.41;5018394;28;20581;-76
2022/11/20 08:43:59;;;;;;;16.70;13.10;;;;;;;0.42;100.00;152652.25;5029152;28;20039;-76
2022/11/20 08:46:26;;;;;;;16.90;13.45;;;;;;;0.52;100.00;152677.69;5027923;28;20071;-76
2022/11/20 08:48:53;;;;;;;15.05;12.60;;;;;;;0.64;100.00;152707.03;5014155;28;20055;-74
2022/11/20 08:51:20;;;;;;;14.95;11.75;;;;;;;0.85;100.00;152757.97;5012133;28;20045;-75
2022/11/20 08:53:48;;;;;;;13.68;11.23;;;;;;;0.83;100.00;152752.88;5013574;28;20037;-75
2022/11/20 08:56:14;;;;;;;13.63;9.45;;;;;;;0.82;100.00;152751.63;5012095;28;20044;-75
2022/11/20 08:58:40;;;;;;;13.80;8.32;;;;;;;0.96;100.00;152786.00;5013011;28;20041;-75
2022/11/20 09:01:05;;;;;;;10.80;7.82;;;;;;;0.99;100.00;152793.66;5028337;28;20509;-76
2022/11/20 09:03:31;;;;;;;9.68;6.97;;;;;;;1.02;100.00;152801.34;5030159;28;20033;-75
2022/11/20 09:05:59;;;;;;;11.95;7.78;;;;;;;1.06;100.00;152810.25;5015376;28;20050;-75
2022/11/20 09:08:25;;;;;;;9.13;6.53;;;;;;;1.24;100.00;152856.09;5031323;28;20031;-76
2022/11/20 09:10:54;;;;;;;7.82;6.15;;;;;;;1.16;100.00;152835.72;5015040;28;20487;-75
2022/11/20 09:13:21;;;;;;;8.80;6.45;;;;;;;1.13;100.00;152828.06;5030032;28;20115;-76
2022/11/20 09:15:52;;;;;;;8.85;5.60;;;;;;;1.17;100.00;152839.56;5015004;28;20059;-74
2022/11/20 09:18:18;;;;;;;7.93;5.82;;;;;;;1.24;100.00;152854.84;5031779;28;20557;-75
2022/11/20 09:20:44;;;;;;;6.22;4.97;;;;;;;1.16;100.00;152835.72;5043601;28;20067;-75
2022/11/20 09:23:09;;;;;;;11.55;5.03;;;;;;;1.29;100.00;152868.88;5013522;28;20037;-75
2022/11/20 09:25:35;;;;;;;8.68;5.25;;;;;;;1.38;100.00;152890.56;5047612;28;20674;-75
2022/11/20 09:28:00;;;;;;;5.75;4.15;;;;;;;1.55;100.00;152933.91;5041590;28;20033;-75
2022/11/20 09:30:26;;;;;;;4.90;3.97;;;;;;;1.67;100.00;152963.22;5045839;28;20036;-75
2022/11/20 09:32:52;;;;;;;4.90;4.00;;;;;;;1.71;100.00;152973.44;5047694;28;20037;-76
2022/11/20 09:35:18;;;;;;;4.68;3.72;;;;;;;1.62;100.00;152950.50;5030097;28;20587;-75
2022/11/20 09:37:44;;;;;;;5.30;3.90;;;;;;;1.43;100.00;152903.31;5032051;28;20041;-76
2022/11/20 09:40:20;;;;;;;4.20;3.80;;;;;;;1.26;100.00;152861.25;5047671;28;20425;-76
2022/11/20 09:42:59;;;;;;;4.88;4.00;;;;;;;1.08;100.00;152816.63;5031465;28;20060;-76
2022/11/20 09:45:55;;;;;;;6.68;4.10;;;;;;;0.92;100.00;152775.81;5030660;28;20040;-75
2022/11/20 09:48:40;;;;;;;4.05;3.65;;;;;;;0.80;100.00;152745.25;5045851;28;20140;-75
2022/11/20 09:51:27;;;;;;;7.20;4.43;;;;;;;0.57;100.00;152690.44;5048259;28;20044;-75
2022/11/20 09:54:17;;;;;;;6.03;4.78;;;;;;;0.42;100.00;152652.25;5046509;28;20116;-75
2022/11/20 09:56:46;;;;;;;4.82;3.65;;;;;;;0.39;100.00;152645.84;5029462;28;20044;-76
2022/11/20 09:59:26;;;;;;;6.28;4.05;;;;;;;0.31;100.00;152624.22;5041714;28;20097;-75
2022/11/20 10:01:54;;;;;;;7.88;4.30;;;;;;;0.41;100.00;152648.41;5030077;28;20444;-75
2022/11/20 10:04:20;;;;;;;4.90;4.10;;;;;;;0.37;100.00;152640.75;5031610;28;20132;-75
2022/11/20 10:07:12;;;;;;;7.22;3.92;;;;;;;0.39;100.00;152645.84;5032987;28;20039;-75
2022/11/20 10:09:43;;;;;;;5.55;4.18;;;;;;;0.47;100.00;152665.00;5031444;28;20037;-76
2022/11/20 10:12:16;;;;;;;4.85;4.45;;;;;;;0.39;100.00;152645.84;5029929;28;20080;-75
2022/11/20 10:15:11;;;;;;;6.78;3.80;;;;;;;0.39;100.00;152644.59;5028279;28;20495;-76
2022/11/20 10:18:04;;;;;;;4.63;3.83;;;;;;;0.38;100.00;152643.31;5023532;28;20039;-76
2022/11/20 10:20:43;;;;;;;8.50;4.45;;;;;;;0.45;100.00;152658.59;5043190;28;20037;-76
2022/11/20 10:23:30;;;;;;;7.20;4.47;;;;;;;0.49;100.00;152670.09;5030236;28;20636;-75
2022/11/20 10:26:01;;;;;;;7.80;5.15;;;;;;;0.65;100.00;152708.31;5029366;28;20033;-74
2022/11/20 10:28:48;;;;;;;7.15;5.43;;;;;;;0.81;100.00;152749.09;5046301;28;20037;-74
2022/11/20 10:31:36;;;;;;;5.22;4.72;;;;;;;0.87;100.00;152763.13;5043992;28;20060;-75
2022/11/20 10:34:28;;;;;;;6.03;4.20;;;;;;;0.76;100.00;152736.34;5038664;28;20034;-75
2022/11/20 10:37:09;;;;;;;4.45;4.05;;;;;;;0.72;100.00;152727.41;5016713;28;20095;-75
2022/11/20 10:40:02;;;;;;;4.90;4.38;;;;;;;0.72;100.00;152727.41;5030391;28;20545;-75
2022/11/20 10:42:46;;;;;;;5.43;4.78;;;;;;;0.89;100.00;152768.19;5043626;28;20044;-76
2022/11/20 10:45:31;;;;;;;5.70;5.10;;;;;;;1.06;100.00;152810.25;5055703;28;20055;-74
2022/11/20 10:47:59;;;;;;;10.35;5.80;;;;;;;1.34;100.00;152880.38;5040634;28;20278;-74
2022/11/20 10:50:27;;;;;;;6.18;5.43;;;;;;;1.69;100.00;152967.03;5040243;28;20080;-74
2022/11/20 10:53:08;;;;;;;4.78;4.32;;;;;;;1.72;100.00;152975.97;5044064;28;20037;-75
2022/11/20 10:55:46;;;;;;;4.85;4.35;;;;;;;1.48;100.00;152916.03;5024691;28;20045;-75
2022/11/20 10:58:34;;;;;;;4.40;3.80;;;;;;;1.33;100.00;152877.81;5018941;28;20560;-75
2022/11/20 11:01:04;;;;;;;5.28;4.25;;;;;;;1.31;100.00;152873.97;5020580;28;20102;-75
2022/11/20 11:03:31;;;;;;;5.00;4.50;;;;;;;1.27;100.00;152862.53;5077608;28;20139;-75
2022/11/20 11:06:21;;;;;;;5.65;4.63;;;;;;;1.25;100.00;152858.69;5042716;28;20729;-75
2022/11/20 11:08:50;;;;;;;5.45;4.60;;;;;;;1.20;100.00;152845.91;5029343;28;20037;-75
2022/11/20 11:11:22;;;;;;;5.43;4.93;;;;;;;1.13;100.00;152828.06;5028430;28;20072;-74
2022/11/20 11:13:47;;;;;;;8.33;4.40;;;;;;;1.19;100.00;152842.09;5043255;28;20087;-74
2022/11/20 11:16:24;;;;;;;6.53;4.90;;;;;;;1.09;100.00;152819.19;5029153;28;20325;-76
2022/11/20 11:18:51;;;;;;;4.85;4.40;;;;;;;1.11;100.00;152822.97;5030416;28;20118;-75
2022/11/20 11:21:24;;;;;;;5.38;4.88;;;;;;;1.06;100.00;152811.53;5029158;28;20135;-75
2022/11/20 11:23:59;;;;;;;5.18;4.68;;;;;;;1.07;100.00;152814.03;5029307;28;20371;-75
2022/11/20 11:26:25;;;;;;;5.20;4.70;;;;;;;1.09;100.00;152819.19;5046721;28;20115;-74